Pilar Observatorio, Argentina

2:11 PM ART on October 25, 2014 (GMT -0300)
Ferreyra | Change Station
CLOSE
Current Station
Personal Weather Station
Location: Cordoba, CORDOBA
Elevation: 1335 ft
Nearby Weather Stations

Elev 1335 ft 31.45 °S, 64.12 °W | Updated 41 seconds ago

Scattered Clouds
Scattered Clouds
92.8 °F
Feels Like 93 °F
N
7.0
Wind Variable Wind from NNE
Gusts 7.0 mph

Today
High -- | Low -- °F
--% Chance of Precip.
Yesterday
High -- | Low -- °F
Precip. -- in
6:25 AM 7:34 PM
Waxing Crescent, 3% visible
Pressure 29.92 in
Visibility 6.2 miles
Clouds Few 2500 ft
Scattered Clouds 20000 ft
Heat Index 93 °F
Dew Point 61 °F
Humidity 35%
Rainfall 0.00 in
Snow Depth Not available.
UV 10 out of 12
Pollen Not available.
Air Quality Not available.
Flu Activity Not available.
METAR SACO 251700Z 05019KT 9999 FEW025 SCT200 33/14 Q1013

More Conditions Fewer Conditions

Pressure 29.92 in
Visibility 6.2 miles
Clouds Few 2500 ft
Scattered Clouds 20000 ft
Heat Index 93 °F
Dew Point 61 °F
Humidity 35%
Rainfall 0.00 in
Snow Depth Not available.
UV 10 out of 12
Pollen Not available.
Air Quality Not available.
Flu Activity Not available.
METAR SACO 251700Z 05019KT 9999 FEW025 SCT200 33/14 Q1013

More Conditions Fewer Conditions

10-Day Weather Forecast

Almanac

Astronomy

Oct. 25, 2014 Rise Set
Actual Time 6:25 AM ART 7:34 PM ART
Civil Twilight 5:59 AM ART 7:59 PM ART
Nautical Twilight 5:29 AM ART 8:30 PM ART
Astronomical Twilight 4:58 AM ART 9:01 PM ART
Moon 7:36 AM ART 9:24 PM ART
Length of Visible Light 14h 00m
Length of Day
13h 09m
Tomorrow will be 1m 48s longer.
Waxing Crescent, 3% of the Moon is Illuminated
Today
Waxing Crescent
Oct 30
First Quarter
Nov 6
Full
Nov 14
Last Quarter
Nov 22
New

Today's Extremes

Country Highs Country Lows

Community

WunderPhotos

Upload Photos

1,764,916 photos uploaded!

Nearby

Snow Depth

Not available.

Earthquake Activity

City Distance Mag. Time & Date
No recent earthquake activity has been reported nearby.
Minimum magnitude displayed is 2.5.

Coastal Water Temperatures

Place Temperature
No Stations Reporting

Nearby Weather Stations